Anchorage, AK

11:16 AM AKDT on July 28, 2016 (GMT -0800)
Anchorage | | Change Station

Elev 144 ft 61.17 °N, 150.03 °W | Updated 23 minutes ago

Mostly Cloudy
Mostly Cloudy
67 °F
Feels Like 67 °F
N
4
Wind Variable Wind from NNW

Today
High -- | Low -- °F
--% Chance of Precip.
Yesterday
High -- | Low -- °F
Precip. -- in
Pressure 29.87 in
Visibility 10.0 miles
Clouds Few 1500 ft
Scattered Clouds 8500 ft
Mostly Cloudy 15000 ft
Dew Point 58 °F
Humidity 73%
Rainfall 0.03 in
Snow Depth Not available.
5:24 AM 10:46 PM
Waning Crescent, 29% visible
METAR PANC 281853Z 34003KT 10SM FEW015 SCT085 BKN150 19/14 A2986 RMK AO2 SLP113 T01940144
Pressure 29.87 in
Visibility 10.0 miles
Clouds Few 1500 ft
Scattered Clouds 8500 ft
Mostly Cloudy 15000 ft
Dew Point 58 °F
Humidity 73%
Rainfall 0.03 in
Snow Depth Not available.
5:24 AM 10:46 PM
Waning Crescent, 29% visible
METAR PANC 281853Z 34003KT 10SM FEW015 SCT085 BKN150 19/14 A2986 RMK AO2 SLP113 T01940144

10-Day Weather Forecast

Almanac

Astronomy

Jul. 28, 2016 Rise Set
Actual Time
Civil Twilight
Nautical Twilight
Astronomical Twilight
Moon
Length of Visible Light
Length of Day
Tomorrow will be .
, % of the Moon is Illuminated

Today's Extremes

State Highs State Lows

Community

WunderPhotos

Upload Photos

1,928,188 photos uploaded!

WunderBlog® & News

Nearby

Air Quality

  Air Quality AQ Index Pollutant
Not available.

Snow Depth

Station Depth Elevation

Earthquake Activity

City Distance Mag. Time & Date
Minimum magnitude displayed is 2.5.

Coastal Water Temperatures

Place Temperature

Stations

Nearby Weather Stations

Station Location Temp. Windchill Dew Point Humidity Wind Precip. Elev Updated Type
                   

Watches & Warnings

There are currently no watches in effect.